createdAt,value
2019-02-20T00:02:09.801Z,99.90
2019-02-20T00:04:38.214Z,99.90
2019-02-20T00:21:02.221Z,99.90
2019-02-20T00:26:35.287Z,99.90
2019-02-20T00:29:03.963Z,99.90
2019-02-20T00:31:32.665Z,99.90
2019-02-20T00:34:01.096Z,99.90
2019-02-20T00:36:29.514Z,99.90
2019-02-20T00:38:58.276Z,99.90
2019-02-20T00:41:26.989Z,99.90
2019-02-20T00:43:57.067Z,99.90
2019-02-20T00:46:30.093Z,99.90
2019-02-20T00:49:00.149Z,99.90
2019-02-20T00:51:30.211Z,99.90
2019-02-20T00:54:00.587Z,99.90
2019-02-20T00:56:29.177Z,99.90
2019-02-20T00:58:57.666Z,99.90
2019-02-20T01:01:26.479Z,99.90
2019-02-20T01:03:54.879Z,99.90
2019-02-20T01:06:23.279Z,99.90
2019-02-20T01:08:51.691Z,99.90
2019-02-20T01:11:20.117Z,99.90
2019-02-20T01:13:48.624Z,99.90
2019-02-20T01:16:17.023Z,99.90
2019-02-20T01:18:45.462Z,99.90
2019-02-20T01:21:14.068Z,99.90
2019-02-20T01:23:42.818Z,99.90
2019-02-20T01:26:11.239Z,99.90
2019-02-20T01:28:39.688Z,99.90
2019-02-20T01:31:08.397Z,99.90
2019-02-20T01:33:36.819Z,99.90
2019-02-20T01:36:05.487Z,99.90
2019-02-20T01:38:33.903Z,99.90
2019-02-20T01:41:02.349Z,99.90
2019-02-20T01:43:30.744Z,99.90
2019-02-20T01:45:59.173Z,99.90
2019-02-20T01:48:27.580Z,99.90
2019-02-20T01:50:55.994Z,99.90
2019-02-20T01:53:24.426Z,99.90
2019-02-20T01:55:52.883Z,99.90
2019-02-20T01:58:21.322Z,99.90
2019-02-20T02:00:50.028Z,99.90
2019-02-20T02:03:18.433Z,99.90
2019-02-20T02:05:46.872Z,99.90
2019-02-20T02:08:15.304Z,99.90
2019-02-20T02:10:43.715Z,99.90
2019-02-20T02:13:12.145Z,99.90
2019-02-20T02:15:40.573Z,99.90
2019-02-20T02:18:08.981Z,99.90
2019-02-20T02:20:37.766Z,99.90
2019-02-20T02:23:06.447Z,99.90
2019-02-20T02:25:35.143Z,99.90
2019-02-20T02:28:03.843Z,99.90
2019-02-20T02:30:32.332Z,99.90
2019-02-20T02:33:01.041Z,99.90
2019-02-20T02:35:29.754Z,99.90
2019-02-20T02:37:58.174Z,99.90
2019-02-20T02:40:26.944Z,99.90
2019-02-20T02:42:55.650Z,99.90
2019-02-20T02:45:24.087Z,99.90
2019-02-20T02:47:52.504Z,99.90
2019-02-20T02:50:20.922Z,99.90
2019-02-20T02:52:49.359Z,99.90
2019-02-20T02:55:17.762Z,99.90
2019-02-20T02:57:46.194Z,99.90
2019-02-20T03:00:14.629Z,99.90
2019-02-20T03:02:43.047Z,99.90
2019-02-20T03:05:11.773Z,99.90
2019-02-20T03:07:40.234Z,99.90
2019-02-20T03:10:09.019Z,99.90
2019-02-20T03:12:37.761Z,99.90
2019-02-20T03:15:08.629Z,99.90
2019-02-20T03:17:37.299Z,99.90
2019-02-20T03:20:08.385Z,99.90
2019-02-20T03:22:36.779Z,99.90
2019-02-20T03:25:06.470Z,99.90
2019-02-20T03:27:34.909Z,99.90
2019-02-20T03:30:03.684Z,99.90
2019-02-20T03:32:32.125Z,99.90
2019-02-20T03:35:00.562Z,99.90
2019-02-20T03:37:28.976Z,99.90
2019-02-20T03:39:57.426Z,99.90
2019-02-20T03:42:25.845Z,99.90
2019-02-20T03:44:54.377Z,99.90
2019-02-20T03:47:22.866Z,99.90
2019-02-20T03:49:51.293Z,99.90
2019-02-20T03:52:19.821Z,99.90
2019-02-20T03:54:48.507Z,99.90
2019-02-20T03:57:17.216Z,99.90
2019-02-20T03:59:45.896Z,99.90
2019-02-20T04:02:14.321Z,99.90
2019-02-20T04:04:42.715Z,99.90
2019-02-20T04:07:11.163Z,99.90
2019-02-20T04:09:39.883Z,99.90
2019-02-20T04:12:08.573Z,99.90
2019-02-20T04:14:37.014Z,99.90
2019-02-20T04:17:05.424Z,99.90
2019-02-20T04:19:33.859Z,99.90
2019-02-20T04:22:02.297Z,99.90
2019-02-20T04:24:30.736Z,99.90
2019-02-20T04:26:59.159Z,99.90
2019-02-20T04:29:27.593Z,99.90
2019-02-20T04:31:56.342Z,99.90
2019-02-20T04:34:24.753Z,99.90
2019-02-20T04:36:53.192Z,99.90
2019-02-20T04:39:21.603Z,99.90
2019-02-20T04:41:50.030Z,99.90
2019-02-20T04:44:18.442Z,99.90
2019-02-20T04:46:46.871Z,99.90
2019-02-20T04:49:15.298Z,99.90
2019-02-20T04:51:43.704Z,99.90
2019-02-20T04:54:13.696Z,99.90
2019-02-20T04:56:42.788Z,99.90
2019-02-20T04:59:11.489Z,99.90
2019-02-20T05:01:40.177Z,99.90
2019-02-20T05:04:08.608Z,99.90
2019-02-20T05:06:37.271Z,99.90
2019-02-20T05:09:05.856Z,99.90
2019-02-20T05:11:34.328Z,99.90
2019-02-20T05:14:03.074Z,99.90
2019-02-20T05:16:31.771Z,99.90
2019-02-20T05:19:00.191Z,99.90
2019-02-20T05:21:28.606Z,99.90
2019-02-20T05:23:57.351Z,99.90
2019-02-20T05:26:25.767Z,99.90
2019-02-20T05:28:54.181Z,99.90
2019-02-20T05:31:22.592Z,99.90
2019-02-20T05:33:51.021Z,99.90
2019-02-20T05:36:19.711Z,99.90
2019-02-20T05:38:48.116Z,99.90
2019-02-20T05:41:16.523Z,99.90
2019-02-20T05:43:45.313Z,99.90
2019-02-20T05:46:13.846Z,99.90
2019-02-20T05:48:42.310Z,99.90
2019-02-20T05:51:10.706Z,99.90
2019-02-20T05:53:39.470Z,99.90
2019-02-20T05:56:08.192Z,99.90
2019-02-20T05:58:36.868Z,99.90
2019-02-20T06:01:05.270Z,99.90
2019-02-20T06:03:33.703Z,99.90
2019-02-20T06:06:02.195Z,99.90
2019-02-20T06:08:30.687Z,99.90
2019-02-20T06:10:59.431Z,99.90
2019-02-20T06:13:28.144Z,99.90
2019-02-20T06:15:56.566Z,99.90
2019-02-20T06:18:25.338Z,99.90
2019-02-20T06:20:54.123Z,99.90
2019-02-20T06:23:22.527Z,99.90
2019-02-20T06:25:50.953Z,99.90
2019-02-20T06:28:19.604Z,99.90
2019-02-20T06:30:48.010Z,99.90
2019-02-20T06:33:16.704Z,99.90
2019-02-20T06:35:45.119Z,99.90
2019-02-20T06:38:13.533Z,99.90
2019-02-20T06:40:42.009Z,99.90
2019-02-20T06:43:10.417Z,99.90
2019-02-20T06:45:38.853Z,99.90
2019-02-20T06:48:07.591Z,99.90
2019-02-20T06:50:36.252Z,99.90
2019-02-20T06:53:04.673Z,99.90
2019-02-20T06:55:33.094Z,99.90
2019-02-20T06:58:01.843Z,99.90
2019-02-20T07:00:30.256Z,99.90
2019-02-20T07:02:58.954Z,99.90
2019-02-20T07:05:30.707Z,99.90
2019-02-20T07:08:18.813Z,99.90
2019-02-20T07:11:12.675Z,99.90
2019-02-20T07:13:52.821Z,99.90
2019-02-20T07:16:30.271Z,99.90
2019-02-20T07:19:07.831Z,99.90
2019-02-20T07:21:53.969Z,99.90
2019-02-20T07:24:28.199Z,99.90
2019-02-20T07:27:11.804Z,99.90
2019-02-20T07:29:51.903Z,99.90
2019-02-20T07:32:20.301Z,99.90
2019-02-20T07:34:48.747Z,99.90
2019-02-20T07:37:17.201Z,99.90
2019-02-20T07:39:45.951Z,99.90
2019-02-20T07:42:14.379Z,99.90
2019-02-20T07:44:43.167Z,99.90
2019-02-20T07:47:11.635Z,99.90
2019-02-20T07:49:40.089Z,99.90
2019-02-20T07:52:08.684Z,99.90
2019-02-20T07:54:37.434Z,99.90
2019-02-20T07:57:05.884Z,99.90
2019-02-20T07:59:34.725Z,99.90
2019-02-20T08:02:03.155Z,99.90
2019-02-20T08:04:31.641Z,99.90
2019-02-20T08:07:00.042Z,99.90
2019-02-20T08:09:28.471Z,99.90
2019-02-20T08:11:57.202Z,99.90
2019-02-20T08:14:25.904Z,99.90
2019-02-20T08:16:54.329Z,99.90
2019-02-20T08:19:22.751Z,99.90
2019-02-20T08:21:51.157Z,99.90
2019-02-20T08:24:20.457Z,99.90
2019-02-20T08:26:48.870Z,99.90
2019-02-20T08:29:17.279Z,99.90
2019-02-20T08:31:45.682Z,99.90
2019-02-20T08:34:14.095Z,99.90
2019-02-20T08:36:42.536Z,99.90
2019-02-20T08:39:10.958Z,99.90
2019-02-20T08:41:39.371Z,99.90
2019-02-20T08:44:07.809Z,99.90
2019-02-20T08:46:36.228Z,99.90
2019-02-20T08:49:04.652Z,99.90
2019-02-20T08:51:33.049Z,99.90
2019-02-20T08:54:01.450Z,99.90
2019-02-20T08:56:29.867Z,99.90
2019-02-20T08:58:58.275Z,99.90
2019-02-20T09:01:26.691Z,99.90
2019-02-20T09:03:55.461Z,99.90
2019-02-20T09:06:24.072Z,99.90
2019-02-20T09:08:52.478Z,99.90
2019-02-20T09:11:20.896Z,99.90
2019-02-20T09:13:49.302Z,99.90
2019-02-20T09:16:17.729Z,99.90
2019-02-20T09:18:46.164Z,99.90
2019-02-20T09:21:14.941Z,99.90
2019-02-20T09:23:43.420Z,99.90
2019-02-20T09:26:11.837Z,99.90
2019-02-20T09:28:40.304Z,99.90
2019-02-20T09:31:08.708Z,99.90
2019-02-20T09:33:37.118Z,99.90
2019-02-20T09:36:05.541Z,99.90
2019-02-20T09:38:34.279Z,99.90
2019-02-20T09:41:02.701Z,99.90
2019-02-20T09:43:31.107Z,99.90
2019-02-20T09:45:59.846Z,99.90
2019-02-20T09:48:28.278Z,99.90
2019-02-20T09:50:56.783Z,99.90
2019-02-20T09:53:25.204Z,99.90
2019-02-20T09:55:53.663Z,99.90
2019-02-20T09:58:22.411Z,99.90
2019-02-20T10:00:51.111Z,99.90
2019-02-20T10:03:19.820Z,99.90
2019-02-20T10:05:48.237Z,99.90
2019-02-20T10:08:16.657Z,99.90
2019-02-20T10:10:45.083Z,99.90
2019-02-20T10:13:13.527Z,99.90
2019-02-20T10:15:41.972Z,99.90
2019-02-20T10:18:12.142Z,99.90
2019-02-20T10:20:40.568Z,99.90
2019-02-20T10:23:08.976Z,99.90
2019-02-20T10:25:37.703Z,99.90
2019-02-20T10:28:06.117Z,99.90
2019-02-20T10:30:34.888Z,99.90
2019-02-20T10:33:03.322Z,99.90
2019-02-20T10:35:31.748Z,99.90
2019-02-20T10:38:00.148Z,99.90
2019-02-20T10:40:28.872Z,99.90
2019-02-20T10:42:57.307Z,99.90
2019-02-20T10:45:26.051Z,99.90
2019-02-20T10:47:54.474Z,99.90
2019-02-20T10:50:22.905Z,99.90
2019-02-20T10:52:51.387Z,99.90
2019-02-20T10:55:19.794Z,99.90
2019-02-20T10:57:48.523Z,99.90
2019-02-20T11:00:23.985Z,99.90
2019-02-20T11:02:49.009Z,99.90
2019-02-20T11:05:17.759Z,99.90
2019-02-20T11:07:46.495Z,99.90
2019-02-20T11:10:15.179Z,99.90
2019-02-20T11:12:43.884Z,99.90
2019-02-20T11:15:13.195Z,99.90
2019-02-20T11:17:41.796Z,99.90
2019-02-20T11:20:11.414Z,99.90
2019-02-20T11:22:40.207Z,99.90
2019-02-20T11:25:10.893Z,99.90
2019-02-20T11:27:39.706Z,99.90
2019-02-20T11:30:11.366Z,99.90
2019-02-20T11:32:39.824Z,99.90
2019-02-20T11:35:08.852Z,99.90
2019-02-20T11:37:37.521Z,99.90
2019-02-20T11:40:08.086Z,99.90
2019-02-20T11:42:36.579Z,99.90
2019-02-20T11:45:07.850Z,99.90
2019-02-20T11:47:36.248Z,99.90
2019-02-20T11:50:07.879Z,99.90
2019-02-20T11:52:38.363Z,99.90
2019-02-20T11:55:08.914Z,99.90
2019-02-20T11:57:37.766Z,99.90
2019-02-20T12:00:09.394Z,99.90
2019-02-20T12:02:38.141Z,99.90
2019-02-20T12:05:06.627Z,99.90
2019-02-20T12:07:35.332Z,99.90
2019-02-20T12:10:05.033Z,99.90
2019-02-20T12:12:33.462Z,99.90
2019-02-20T12:15:01.903Z,99.90
2019-02-20T12:17:30.318Z,99.90
2019-02-20T12:19:59.027Z,99.90
2019-02-20T12:22:27.457Z,99.90
2019-02-20T12:24:55.949Z,99.90
2019-02-20T12:27:24.719Z,99.90
2019-02-20T12:29:53.146Z,99.90
2019-02-20T12:32:21.630Z,99.90
2019-02-20T12:34:50.099Z,99.90
2019-02-20T12:37:18.782Z,99.90
2019-02-20T12:39:47.183Z,99.90
2019-02-20T12:42:15.603Z,99.90
2019-02-20T12:44:44.363Z,99.90
2019-02-20T12:47:13.094Z,99.90
2019-02-20T12:49:41.528Z,99.90
2019-02-20T12:52:09.951Z,99.90
2019-02-20T12:54:38.654Z,99.90
2019-02-20T12:57:07.354Z,99.90
2019-02-20T12:59:36.832Z,99.90
2019-02-20T13:02:05.369Z,99.90
2019-02-20T13:04:34.059Z,99.90
2019-02-20T13:07:02.769Z,99.90
2019-02-20T13:09:31.174Z,99.90
2019-02-20T13:11:59.864Z,99.90
2019-02-20T13:14:28.678Z,99.90
2019-02-20T13:16:57.091Z,99.90
2019-02-20T13:19:25.835Z,99.90
2019-02-20T13:21:54.538Z,99.90
2019-02-20T13:24:22.959Z,99.90
2019-02-20T13:26:53.026Z,99.90
2019-02-20T13:29:21.537Z,99.90
2019-02-20T13:31:49.947Z,99.90
2019-02-20T13:34:18.400Z,99.90
2019-02-20T13:36:47.130Z,99.90
2019-02-20T13:39:15.568Z,99.90
2019-02-20T13:41:44.527Z,99.90
2019-02-20T13:44:13.360Z,99.90
2019-02-20T13:46:41.870Z,99.90
2019-02-20T13:49:10.776Z,99.90
2019-02-20T13:51:39.247Z,99.90
2019-02-20T13:54:07.739Z,99.90
2019-02-20T13:56:36.196Z,99.90
2019-02-20T13:59:04.725Z,99.90
2019-02-20T14:01:33.222Z,99.90
2019-02-20T14:04:01.909Z,99.90
2019-02-20T14:06:30.792Z,99.90
2019-02-20T14:08:59.225Z,99.90
2019-02-20T14:11:27.745Z,99.90
2019-02-20T14:13:56.497Z,99.90
2019-02-20T14:16:25.287Z,99.90
2019-02-20T14:18:53.750Z,99.90
2019-02-20T14:21:22.255Z,99.90
2019-02-20T14:23:51.309Z,99.90
2019-02-20T14:26:19.810Z,99.90
2019-02-20T14:28:48.230Z,99.90
2019-02-20T14:31:16.648Z,99.90
2019-02-20T14:33:45.148Z,99.90
2019-02-20T14:36:13.961Z,99.90
2019-02-20T14:38:42.670Z,99.90
2019-02-20T14:41:11.497Z,99.90
2019-02-20T14:43:39.907Z,99.90
2019-02-20T14:46:08.653Z,99.90
2019-02-20T14:48:37.445Z,99.90
2019-02-20T14:51:06.265Z,99.90
2019-02-20T14:53:34.921Z,99.90
2019-02-20T14:56:03.802Z,99.90
2019-02-20T14:58:32.226Z,99.90
2019-02-20T15:01:00.935Z,99.90
2019-02-20T15:03:29.359Z,99.90
2019-02-20T15:05:58.035Z,99.60
2019-02-20T15:08:26.461Z,96.90
2019-02-20T15:10:54.905Z,94.90
2019-02-20T15:13:23.593Z,95.00
2019-02-20T15:15:52.011Z,95.60
2019-02-20T15:18:20.533Z,97.20
2019-02-20T15:20:49.048Z,97.50
2019-02-20T15:23:17.550Z,98.10
2019-02-20T15:25:46.110Z,99.00
2019-02-20T15:28:14.890Z,99.90
2019-02-20T15:30:43.373Z,99.90
2019-02-20T15:33:11.785Z,99.90
2019-02-20T15:35:40.222Z,99.90
2019-02-20T15:38:08.647Z,99.90
2019-02-20T15:40:37.158Z,99.90
2019-02-20T15:43:05.670Z,99.90
2019-02-20T15:45:34.379Z,99.90
2019-02-20T15:48:03.142Z,99.90
2019-02-20T15:50:31.595Z,99.90
2019-02-20T15:53:00.029Z,99.90
2019-02-20T15:55:28.837Z,99.90
2019-02-20T15:57:57.631Z,99.90
2019-02-20T16:00:26.415Z,99.90
2019-02-20T16:02:55.628Z,99.60
2019-02-20T16:05:24.443Z,99.60
2019-02-20T16:07:53.517Z,99.60
2019-02-20T16:10:22.033Z,99.70
2019-02-20T16:12:50.480Z,99.90
2019-02-20T16:15:18.880Z,99.90
2019-02-20T16:17:47.332Z,99.90
2019-02-20T16:20:16.139Z,99.90
2019-02-20T16:22:44.908Z,99.90
2019-02-20T16:25:17.703Z,99.90
2019-02-20T16:27:47.423Z,99.90
2019-02-20T16:30:16.354Z,99.90
2019-02-20T16:32:44.755Z,99.90
2019-02-20T16:35:13.706Z,99.90
2019-02-20T16:37:42.427Z,99.90
2019-02-20T16:40:17.172Z,99.90
2019-02-20T16:42:45.674Z,99.90
2019-02-20T16:45:26.454Z,99.90
2019-02-20T16:47:55.375Z,99.90
2019-02-20T16:50:24.169Z,99.90
2019-02-20T16:52:52.857Z,99.90
2019-02-20T16:55:22.734Z,99.90
2019-02-20T16:57:56.618Z,99.90
2019-02-20T17:00:22.427Z,99.90
2019-02-20T17:02:51.249Z,99.90
2019-02-20T17:05:19.960Z,99.90
2019-02-20T17:07:48.378Z,99.90
2019-02-20T17:10:17.227Z,99.90
2019-02-20T17:12:45.656Z,99.90
2019-02-20T17:15:15.880Z,99.90
2019-02-20T17:17:44.303Z,99.90
2019-02-20T17:20:17.817Z,99.90
2019-02-20T17:22:46.397Z,99.90
2019-02-20T17:25:15.369Z,99.90
2019-02-20T17:27:43.903Z,99.90
2019-02-20T17:30:14.907Z,99.90
2019-02-20T17:32:43.721Z,99.90
2019-02-20T17:35:12.544Z,99.90
2019-02-20T17:37:41.427Z,99.90
2019-02-20T17:40:12.657Z,99.90
2019-02-20T17:42:41.184Z,99.90
2019-02-20T17:45:17.658Z,99.90
2019-02-20T17:47:46.760Z,99.90
2019-02-20T17:50:23.657Z,99.90
2019-02-20T17:52:52.466Z,99.90
2019-02-20T17:55:21.245Z,99.90
2019-02-20T17:57:49.669Z,99.90
2019-02-20T18:00:20.119Z,99.90
2019-02-20T18:02:48.523Z,99.90
2019-02-20T18:05:17.255Z,99.90
2019-02-20T18:07:49.895Z,99.90
2019-02-20T18:10:15.858Z,99.90
2019-02-20T18:12:44.273Z,99.90
2019-02-20T18:15:14.158Z,99.90
2019-02-20T18:17:42.585Z,99.90
2019-02-20T18:20:11.627Z,99.90
2019-02-20T18:22:40.404Z,99.90
2019-02-20T18:25:10.473Z,99.90
2019-02-20T18:27:38.877Z,99.90
2019-02-20T18:30:12.855Z,99.90
2019-02-20T18:32:41.274Z,99.90
2019-02-20T18:35:11.364Z,99.90
2019-02-20T18:37:40.177Z,99.90
2019-02-20T18:40:14.415Z,99.90
2019-02-20T18:42:43.220Z,99.90
2019-02-20T18:45:15.632Z,99.90
2019-02-20T18:47:44.417Z,99.90
2019-02-20T18:50:14.326Z,99.90
2019-02-20T18:52:42.756Z,99.90
2019-02-20T18:55:12.874Z,99.90
2019-02-20T18:57:41.381Z,99.90
2019-02-20T19:00:20.634Z,99.90
2019-02-20T19:02:49.128Z,99.90
2019-02-20T19:05:19.085Z,99.90
2019-02-20T19:07:47.837Z,99.90
2019-02-20T19:10:28.296Z,99.90
2019-02-20T19:13:24.202Z,99.90
2019-02-20T19:15:55.818Z,99.90
2019-02-20T19:19:02.650Z,99.90
2019-02-20T19:21:40.117Z,99.90
2019-02-20T19:24:31.418Z,99.90
2019-02-20T19:27:05.658Z,99.90
2019-02-20T19:29:59.659Z,99.90
2019-02-20T19:32:42.961Z,99.90
2019-02-20T19:35:48.434Z,99.90
2019-02-20T19:38:26.454Z,99.90
2019-02-20T19:41:14.864Z,99.90
2019-02-20T19:44:07.774Z,99.90
2019-02-20T19:47:00.567Z,99.90
2019-02-20T19:49:59.491Z,99.90
2019-02-20T19:52:34.095Z,99.90
2019-02-20T19:55:11.108Z,99.90
2019-02-20T19:57:48.287Z,99.90
2019-02-20T20:00:37.913Z,99.90
2019-02-20T20:03:29.122Z,99.90
2019-02-20T20:06:00.721Z,99.90
2019-02-20T20:08:52.834Z,99.90
2019-02-20T20:11:44.530Z,99.90
2019-02-20T20:14:19.298Z,99.90
2019-02-20T20:17:08.967Z,99.90
2019-02-20T20:19:55.566Z,99.90
2019-02-20T20:22:29.973Z,99.90
2019-02-20T20:25:10.123Z,99.90
2019-02-20T20:27:58.449Z,99.90
2019-02-20T20:30:42.093Z,99.90
2019-02-20T20:33:19.419Z,99.90
2019-02-20T20:35:50.991Z,99.90
2019-02-20T20:38:22.528Z,99.90
2019-02-20T20:40:59.867Z,99.90
2019-02-20T20:43:31.362Z,99.90
2019-02-20T20:46:25.193Z,99.90
2019-02-20T20:49:05.051Z,99.90
2019-02-20T20:51:42.496Z,99.90
2019-02-20T20:54:14.018Z,99.90
2019-02-20T20:56:57.817Z,99.90
2019-02-20T20:59:30.492Z,99.90
2019-02-20T21:02:23.130Z,99.90
2019-02-20T21:04:54.934Z,99.90
2019-02-20T21:07:32.033Z,99.90
2019-02-20T21:10:15.879Z,99.90
2019-02-20T21:13:02.415Z,99.90
2019-02-20T21:15:55.466Z,99.90
2019-02-20T21:18:42.050Z,99.90
2019-02-20T21:21:13.542Z,99.90
2019-02-20T21:24:18.821Z,99.90
2019-02-20T21:26:56.222Z,99.90
2019-02-20T21:29:28.712Z,99.90
2019-02-20T21:32:00.943Z,99.90
2019-02-20T21:34:38.802Z,99.90
2019-02-20T21:37:31.170Z,99.90
2019-02-20T21:40:20.896Z,99.90
2019-02-20T21:43:04.342Z,99.90
2019-02-20T21:45:35.838Z,99.90
2019-02-20T21:48:12.845Z,99.90
2019-02-20T21:50:47.479Z,99.90
2019-02-20T21:53:35.824Z,99.90
2019-02-20T21:56:22.218Z,99.90
2019-02-20T21:59:15.201Z,99.90
2019-02-20T22:01:55.632Z,99.90
2019-02-20T22:04:30.091Z,99.90
2019-02-20T22:07:29.283Z,99.90
2019-02-20T22:10:09.770Z,99.90
2019-02-20T22:13:03.540Z,99.90
2019-02-20T22:15:38.001Z,99.90
2019-02-20T22:18:21.819Z,99.90
2019-02-20T22:20:58.827Z,99.90
2019-02-20T22:23:41.874Z,99.90
2019-02-20T22:26:19.561Z,99.90
2019-02-20T22:29:13.750Z,99.90
2019-02-20T22:31:57.120Z,99.90
2019-02-20T22:34:34.900Z,99.90
2019-02-20T22:37:09.252Z,99.90
2019-02-20T22:39:40.750Z,99.90
2019-02-20T22:42:21.073Z,99.90
2019-02-20T22:45:15.186Z,99.90
2019-02-20T22:48:13.992Z,99.90
2019-02-20T22:50:54.553Z,99.90
2019-02-20T22:53:48.860Z,99.90
2019-02-20T22:56:23.245Z,99.90
2019-02-20T22:59:03.866Z,99.90
2019-02-20T23:01:38.088Z,99.90
2019-02-20T23:04:12.230Z,99.90
2019-02-20T23:07:04.648Z,99.90
2019-02-20T23:09:44.894Z,99.90
2019-02-20T23:12:40.846Z,99.90
2019-02-20T23:15:09.280Z,99.90
2019-02-20T23:17:37.802Z,99.90
2019-02-20T23:20:08.267Z,99.90
2019-02-20T23:22:36.695Z,99.90
2019-02-20T23:25:06.467Z,99.90
2019-02-20T23:27:34.871Z,99.90
2019-02-20T23:30:12.585Z,99.90
2019-02-20T23:32:34.385Z,99.90
2019-02-20T23:35:02.779Z,99.90
2019-02-20T23:37:31.185Z,99.90
2019-02-20T23:39:59.618Z,99.90
2019-02-20T23:42:28.058Z,99.90
2019-02-20T23:44:56.487Z,99.90
2019-02-20T23:47:25.229Z,99.90
2019-02-20T23:49:53.642Z,99.90
2019-02-20T23:52:22.063Z,99.90
2019-02-20T23:54:50.809Z,99.90
2019-02-20T23:57:19.501Z,99.90
2019-02-20T23:59:47.910Z,99.90
